sensor_id;sensor_type;location;lat;lon;timestamp;temperature;humidity
67050;DHT22;53955;52.442;13.284;2023-06-10T00:01:19;21.90;41.70
67050;DHT22;53955;52.442;13.284;2023-06-10T00:03:48;21.70;42.50
67050;DHT22;53955;52.442;13.284;2023-06-10T00:06:14;21.80;42.60
67050;DHT22;53955;52.442;13.284;2023-06-10T00:08:41;21.70;42.90
67050;DHT22;53955;52.442;13.284;2023-06-10T00:11:07;21.70;42.20
67050;DHT22;53955;52.442;13.284;2023-06-10T00:13:34;21.50;43.20
67050;DHT22;53955;52.442;13.284;2023-06-10T00:16:02;21.50;42.80
67050;DHT22;53955;52.442;13.284;2023-06-10T00:18:29;21.80;42.70
67050;DHT22;53955;52.442;13.284;2023-06-10T00:20:56;21.80;42.20
67050;DHT22;53955;52.442;13.284;2023-06-10T00:23:28;21.80;42.30
67050;DHT22;53955;52.442;13.284;2023-06-10T00:25:56;21.80;42.80
67050;DHT22;53955;52.442;13.284;2023-06-10T00:28:24;21.70;42.90
67050;DHT22;53955;52.442;13.284;2023-06-10T00:30:51;21.80;42.40
67050;DHT22;53955;52.442;13.284;2023-06-10T00:33:19;21.70;42.60
67050;DHT22;53955;52.442;13.284;2023-06-10T00:35:46;21.70;42.40
67050;DHT22;53955;52.442;13.284;2023-06-10T00:38:13;21.70;42.80
67050;DHT22;53955;52.442;13.284;2023-06-10T00:40:40;21.50;43.40
67050;DHT22;53955;52.442;13.284;2023-06-10T00:43:07;21.50;43.40
67050;DHT22;53955;52.442;13.284;2023-06-10T00:45:34;21.60;43.20
67050;DHT22;53955;52.442;13.284;2023-06-10T00:48:01;21.60;43.60
67050;DHT22;53955;52.442;13.284;2023-06-10T00:50:29;21.60;43.50
67050;DHT22;53955;52.442;13.284;2023-06-10T00:52:58;21.50;43.80
67050;DHT22;53955;52.442;13.284;2023-06-10T00:55:25;21.60;43.20
67050;DHT22;53955;52.442;13.284;2023-06-10T00:57:53;21.60;43.80
67050;DHT22;53955;52.442;13.284;2023-06-10T01:00:20;21.50;43.80
67050;DHT22;53955;52.442;13.284;2023-06-10T01:02:47;21.60;43.80
67050;DHT22;53955;52.442;13.284;2023-06-10T01:05:14;21.40;44.10
67050;DHT22;53955;52.442;13.284;2023-06-10T01:07:50;21.50;44.00
67050;DHT22;53955;52.442;13.284;2023-06-10T01:10:23;21.30;44.10
67050;DHT22;53955;52.442;13.284;2023-06-10T01:12:58;21.30;44.90
67050;DHT22;53955;52.442;13.284;2023-06-10T01:15:28;21.40;43.90
67050;DHT22;53955;52.442;13.284;2023-06-10T01:17:56;21.30;44.60
67050;DHT22;53955;52.442;13.284;2023-06-10T01:20:23;21.30;45.00
67050;DHT22;53955;52.442;13.284;2023-06-10T01:22:53;21.20;44.60
67050;DHT22;53955;52.442;13.284;2023-06-10T01:25:20;21.20;45.70
67050;DHT22;53955;52.442;13.284;2023-06-10T01:27:54;21.30;45.20
67050;DHT22;53955;52.442;13.284;2023-06-10T01:30:23;21.10;45.70
67050;DHT22;53955;52.442;13.284;2023-06-10T01:32:55;21.20;45.00
67050;DHT22;53955;52.442;13.284;2023-06-10T01:35:24;21.10;45.30
67050;DHT22;53955;52.442;13.284;2023-06-10T01:37:53;21.20;45.50
67050;DHT22;53955;52.442;13.284;2023-06-10T01:40:21;21.20;45.20
67050;DHT22;53955;52.442;13.284;2023-06-10T01:42:47;21.20;45.80
67050;DHT22;53955;52.442;13.284;2023-06-10T01:45:17;21.20;45.80
67050;DHT22;53955;52.442;13.284;2023-06-10T01:47:44;21.10;46.00
67050;DHT22;53955;52.442;13.284;2023-06-10T01:50:10;21.10;45.50
67050;DHT22;53955;52.442;13.284;2023-06-10T01:52:37;21.10;45.30
67050;DHT22;53955;52.442;13.284;2023-06-10T01:55:06;21.00;46.20
67050;DHT22;53955;52.442;13.284;2023-06-10T01:57:32;21.10;45.90
67050;DHT22;53955;52.442;13.284;2023-06-10T01:59:59;21.00;46.40
67050;DHT22;53955;52.442;13.284;2023-06-10T02:02:25;21.10;46.20
67050;DHT22;53955;52.442;13.284;2023-06-10T02:04:52;21.00;46.30
67050;DHT22;53955;52.442;13.284;2023-06-10T02:07:18;21.00;46.40
67050;DHT22;53955;52.442;13.284;2023-06-10T02:09:45;21.00;46.70
67050;DHT22;53955;52.442;13.284;2023-06-10T02:12:13;21.00;46.60
67050;DHT22;53955;52.442;13.284;2023-06-10T02:14:40;20.90;46.90
67050;DHT22;53955;52.442;13.284;2023-06-10T02:17:07;20.90;48.10
67050;DHT22;53955;52.442;13.284;2023-06-10T02:19:38;20.80;48.40
67050;DHT22;53955;52.442;13.284;2023-06-10T02:22:07;20.90;46.70
67050;DHT22;53955;52.442;13.284;2023-06-10T02:24:35;20.90;46.50
67050;DHT22;53955;52.442;13.284;2023-06-10T02:27:03;21.00;46.00
67050;DHT22;53955;52.442;13.284;2023-06-10T02:29:33;21.00;46.40
67050;DHT22;53955;52.442;13.284;2023-06-10T02:31:59;21.10;46.00
67050;DHT22;53955;52.442;13.284;2023-06-10T02:34:26;21.00;46.20
67050;DHT22;53955;52.442;13.284;2023-06-10T02:36:52;21.00;46.50
67050;DHT22;53955;52.442;13.284;2023-06-10T02:39:19;21.20;46.30
67050;DHT22;53955;52.442;13.284;2023-06-10T02:41:46;21.10;46.40
67050;DHT22;53955;52.442;13.284;2023-06-10T02:44:12;21.00;46.10
67050;DHT22;53955;52.442;13.284;2023-06-10T02:46:40;21.00;46.20
67050;DHT22;53955;52.442;13.284;2023-06-10T02:49:07;20.90;46.40
67050;DHT22;53955;52.442;13.284;2023-06-10T02:51:33;20.80;48.50
67050;DHT22;53955;52.442;13.284;2023-06-10T02:54:01;20.60;48.50
67050;DHT22;53955;52.442;13.284;2023-06-10T02:56:27;20.80;48.70
67050;DHT22;53955;52.442;13.284;2023-06-10T02:58:54;20.60;48.30
67050;DHT22;53955;52.442;13.284;2023-06-10T03:01:21;20.90;47.70
67050;DHT22;53955;52.442;13.284;2023-06-10T03:03:49;20.90;48.70
67050;DHT22;53955;52.442;13.284;2023-06-10T03:06:16;20.70;48.80
67050;DHT22;53955;52.442;13.284;2023-06-10T03:08:43;20.80;49.30
67050;DHT22;53955;52.442;13.284;2023-06-10T03:11:11;20.80;49.00
67050;DHT22;53955;52.442;13.284;2023-06-10T03:13:38;20.60;48.90
67050;DHT22;53955;52.442;13.284;2023-06-10T03:16:05;20.90;47.20
67050;DHT22;53955;52.442;13.284;2023-06-10T03:18:31;20.80;48.80
67050;DHT22;53955;52.442;13.284;2023-06-10T03:20:59;20.70;49.30
67050;DHT22;53955;52.442;13.284;2023-06-10T03:23:26;20.70;49.00
67050;DHT22;53955;52.442;13.284;2023-06-10T03:25:54;20.70;49.80
67050;DHT22;53955;52.442;13.284;2023-06-10T03:28:21;20.60;49.60
67050;DHT22;53955;52.442;13.284;2023-06-10T03:30:48;20.60;50.10
67050;DHT22;53955;52.442;13.284;2023-06-10T03:33:15;20.50;50.20
67050;DHT22;53955;52.442;13.284;2023-06-10T03:35:41;20.60;49.90
67050;DHT22;53955;52.442;13.284;2023-06-10T03:38:09;20.70;49.50
67050;DHT22;53955;52.442;13.284;2023-06-10T03:40:36;20.70;49.50
67050;DHT22;53955;52.442;13.284;2023-06-10T03:43:02;20.70;49.40
67050;DHT22;53955;52.442;13.284;2023-06-10T03:45:29;20.80;49.90
67050;DHT22;53955;52.442;13.284;2023-06-10T03:47:56;20.80;49.70
67050;DHT22;53955;52.442;13.284;2023-06-10T03:50:22;20.90;48.20
67050;DHT22;53955;52.442;13.284;2023-06-10T03:52:50;20.90;48.10
67050;DHT22;53955;52.442;13.284;2023-06-10T03:55:18;20.70;49.70
67050;DHT22;53955;52.442;13.284;2023-06-10T03:57:47;20.80;50.10
67050;DHT22;53955;52.442;13.284;2023-06-10T04:00:14;20.90;48.10
67050;DHT22;53955;52.442;13.284;2023-06-10T04:02:41;20.90;48.10
67050;DHT22;53955;52.442;13.284;2023-06-10T04:05:11;21.00;48.10
67050;DHT22;53955;52.442;13.284;2023-06-10T04:07:37;21.00;48.50
67050;DHT22;53955;52.442;13.284;2023-06-10T04:10:07;21.00;48.00
67050;DHT22;53955;52.442;13.284;2023-06-10T04:12:35;21.00;48.40
67050;DHT22;53955;52.442;13.284;2023-06-10T04:15:02;20.90;48.20
67050;DHT22;53955;52.442;13.284;2023-06-10T04:17:29;20.90;48.70
67050;DHT22;53955;52.442;13.284;2023-06-10T04:19:55;21.00;48.20
67050;DHT22;53955;52.442;13.284;2023-06-10T04:22:23;21.10;48.20
67050;DHT22;53955;52.442;13.284;2023-06-10T04:24:50;21.10;47.80
67050;DHT22;53955;52.442;13.284;2023-06-10T04:27:17;21.20;47.60
67050;DHT22;53955;52.442;13.284;2023-06-10T04:29:45;21.40;46.80
67050;DHT22;53955;52.442;13.284;2023-06-10T04:32:11;21.70;46.20
67050;DHT22;53955;52.442;13.284;2023-06-10T04:34:38;21.80;46.40
67050;DHT22;53955;52.442;13.284;2023-06-10T04:37:05;21.90;45.60
67050;DHT22;53955;52.442;13.284;2023-06-10T04:39:32;22.00;45.60
67050;DHT22;53955;52.442;13.284;2023-06-10T04:41:59;22.10;44.90
67050;DHT22;53955;52.442;13.284;2023-06-10T04:44:25;22.00;44.80
67050;DHT22;53955;52.442;13.284;2023-06-10T04:46:53;22.00;45.30
67050;DHT22;53955;52.442;13.284;2023-06-10T04:49:21;21.90;45.40
67050;DHT22;53955;52.442;13.284;2023-06-10T04:51:47;21.80;46.10
67050;DHT22;53955;52.442;13.284;2023-06-10T04:54:14;21.60;46.50
67050;DHT22;53955;52.442;13.284;2023-06-10T04:56:41;21.40;47.70
67050;DHT22;53955;52.442;13.284;2023-06-10T04:59:07;21.20;47.40
67050;DHT22;53955;52.442;13.284;2023-06-10T05:01:34;21.20;48.10
67050;DHT22;53955;52.442;13.284;2023-06-10T05:04:02;21.30;47.80
67050;DHT22;53955;52.442;13.284;2023-06-10T05:06:29;21.20;47.70
67050;DHT22;53955;52.442;13.284;2023-06-10T05:08:56;21.20;48.50
67050;DHT22;53955;52.442;13.284;2023-06-10T05:11:22;21.20;47.60
67050;DHT22;53955;52.442;13.284;2023-06-10T05:13:49;21.20;48.20
67050;DHT22;53955;52.442;13.284;2023-06-10T05:16:15;21.10;48.90
67050;DHT22;53955;52.442;13.284;2023-06-10T05:18:42;21.30;47.90
67050;DHT22;53955;52.442;13.284;2023-06-10T05:21:10;21.40;47.30
67050;DHT22;53955;52.442;13.284;2023-06-10T05:23:37;21.40;47.80
67050;DHT22;53955;52.442;13.284;2023-06-10T05:26:03;21.50;47.50
67050;DHT22;53955;52.442;13.284;2023-06-10T05:28:30;21.60;47.00
67050;DHT22;53955;52.442;13.284;2023-06-10T05:30:56;21.50;47.30
67050;DHT22;53955;52.442;13.284;2023-06-10T05:33:23;21.50;47.20
67050;DHT22;53955;52.442;13.284;2023-06-10T05:35:49;21.50;47.30
67050;DHT22;53955;52.442;13.284;2023-06-10T05:38:17;21.70;47.30
67050;DHT22;53955;52.442;13.284;2023-06-10T05:40:44;21.90;46.40
67050;DHT22;53955;52.442;13.284;2023-06-10T05:43:10;21.90;45.90
67050;DHT22;53955;52.442;13.284;2023-06-10T05:45:37;22.00;46.10
67050;DHT22;53955;52.442;13.284;2023-06-10T05:48:05;22.00;46.50
67050;DHT22;53955;52.442;13.284;2023-06-10T05:50:33;22.00;46.00
67050;DHT22;53955;52.442;13.284;2023-06-10T05:53:03;22.30;45.30
67050;DHT22;53955;52.442;13.284;2023-06-10T05:55:33;22.40;45.20
67050;DHT22;53955;52.442;13.284;2023-06-10T05:58:00;22.40;45.20
67050;DHT22;53955;52.442;13.284;2023-06-10T06:00:26;22.80;44.60
67050;DHT22;53955;52.442;13.284;2023-06-10T06:02:53;24.30;39.30
67050;DHT22;53955;52.442;13.284;2023-06-10T06:05:22;25.80;36.00
67050;DHT22;53955;52.442;13.284;2023-06-10T06:07:49;26.50;33.40
67050;DHT22;53955;52.442;13.284;2023-06-10T06:10:17;27.70;31.70
67050;DHT22;53955;52.442;13.284;2023-06-10T06:12:45;28.30;30.20
67050;DHT22;53955;52.442;13.284;2023-06-10T06:15:11;27.80;30.00
67050;DHT22;53955;52.442;13.284;2023-06-10T06:17:38;27.20;31.20
67050;DHT22;53955;52.442;13.284;2023-06-10T06:20:06;25.80;35.40
67050;DHT22;53955;52.442;13.284;2023-06-10T06:22:33;25.50;36.30
67050;DHT22;53955;52.442;13.284;2023-06-10T06:24:59;25.60;36.20
67050;DHT22;53955;52.442;13.284;2023-06-10T06:27:26;26.00;35.30
67050;DHT22;53955;52.442;13.284;2023-06-10T06:29:53;25.90;35.40
67050;DHT22;53955;52.442;13.284;2023-06-10T06:32:20;26.10;35.60
67050;DHT22;53955;52.442;13.284;2023-06-10T06:34:48;26.20;35.40
67050;DHT22;53955;52.442;13.284;2023-06-10T06:37:14;26.30;34.80
67050;DHT22;53955;52.442;13.284;2023-06-10T06:39:41;26.00;34.90
67050;DHT22;53955;52.442;13.284;2023-06-10T06:42:08;25.90;35.50
67050;DHT22;53955;52.442;13.284;2023-06-10T06:44:34;26.00;35.90
67050;DHT22;53955;52.442;13.284;2023-06-10T06:47:02;26.10;35.80
67050;DHT22;53955;52.442;13.284;2023-06-10T06:49:29;25.90;35.40
67050;DHT22;53955;52.442;13.284;2023-06-10T06:51:56;25.90;35.80
67050;DHT22;53955;52.442;13.284;2023-06-10T06:54:22;25.60;35.90
67050;DHT22;53955;52.442;13.284;2023-06-10T06:56:50;25.40;36.70
67050;DHT22;53955;52.442;13.284;2023-06-10T06:59:16;25.40;37.50
67050;DHT22;53955;52.442;13.284;2023-06-10T07:01:45;25.30;37.10
67050;DHT22;53955;52.442;13.284;2023-06-10T07:04:15;25.40;36.90
67050;DHT22;53955;52.442;13.284;2023-06-10T07:06:41;25.20;38.00
67050;DHT22;53955;52.442;13.284;2023-06-10T07:09:08;25.50;37.20
67050;DHT22;53955;52.442;13.284;2023-06-10T07:11:35;25.70;37.40
67050;DHT22;53955;52.442;13.284;2023-06-10T07:14:01;26.30;36.30
67050;DHT22;53955;52.442;13.284;2023-06-10T07:16:28;26.50;34.00
67050;DHT22;53955;52.442;13.284;2023-06-10T07:18:54;26.50;34.30
67050;DHT22;53955;52.442;13.284;2023-06-10T07:21:22;26.60;34.70
67050;DHT22;53955;52.442;13.284;2023-06-10T07:23:49;26.60;34.40
67050;DHT22;53955;52.442;13.284;2023-06-10T07:26:19;26.90;35.40
67050;DHT22;53955;52.442;13.284;2023-06-10T07:28:45;27.40;34.00
67050;DHT22;53955;52.442;13.284;2023-06-10T07:31:12;27.90;32.70
67050;DHT22;53955;52.442;13.284;2023-06-10T07:33:38;28.30;31.70
67050;DHT22;53955;52.442;13.284;2023-06-10T07:36:05;28.20;31.10
67050;DHT22;53955;52.442;13.284;2023-06-10T07:38:33;28.60;29.80
67050;DHT22;53955;52.442;13.284;2023-06-10T07:41:00;28.60;30.80
67050;DHT22;53955;52.442;13.284;2023-06-10T07:43:27;28.90;30.10
67050;DHT22;53955;52.442;13.284;2023-06-10T07:45:53;28.90;29.50
67050;DHT22;53955;52.442;13.284;2023-06-10T07:48:20;28.90;30.10
67050;DHT22;53955;52.442;13.284;2023-06-10T07:50:46;28.90;30.00
67050;DHT22;53955;52.442;13.284;2023-06-10T07:53:13;28.90;30.00
67050;DHT22;53955;52.442;13.284;2023-06-10T07:55:41;29.10;29.20
67050;DHT22;53955;52.442;13.284;2023-06-10T07:58:07;28.90;29.80
67050;DHT22;53955;52.442;13.284;2023-06-10T08:00:34;29.30;28.40
67050;DHT22;53955;52.442;13.284;2023-06-10T08:03:00;29.10;28.10
67050;DHT22;53955;52.442;13.284;2023-06-10T08:05:27;29.30;27.80
67050;DHT22;53955;52.442;13.284;2023-06-10T08:07:54;28.90;29.10
67050;DHT22;53955;52.442;13.284;2023-06-10T08:10:21;29.10;28.70
67050;DHT22;53955;52.442;13.284;2023-06-10T08:12:48;29.30;27.60
67050;DHT22;53955;52.442;13.284;2023-06-10T08:15:15;29.30;28.40
67050;DHT22;53955;52.442;13.284;2023-06-10T08:17:41;29.30;27.30
67050;DHT22;53955;52.442;13.284;2023-06-10T08:20:08;29.20;28.10
67050;DHT22;53955;52.442;13.284;2023-06-10T08:22:35;28.60;29.00
67050;DHT22;53955;52.442;13.284;2023-06-10T08:25:01;28.60;30.10
67050;DHT22;53955;52.442;13.284;2023-06-10T08:27:28;28.50;29.90
67050;DHT22;53955;52.442;13.284;2023-06-10T08:29:56;28.60;29.90
67050;DHT22;53955;52.442;13.284;2023-06-10T08:32:25;28.80;30.00
67050;DHT22;53955;52.442;13.284;2023-06-10T08:34:52;28.80;29.40
67050;DHT22;53955;52.442;13.284;2023-06-10T08:37:18;28.90;29.10
67050;DHT22;53955;52.442;13.284;2023-06-10T08:39:45;29.20;28.70
67050;DHT22;53955;52.442;13.284;2023-06-10T08:42:22;29.40;28.30
67050;DHT22;53955;52.442;13.284;2023-06-10T08:44:53;29.50;27.90
67050;DHT22;53955;52.442;13.284;2023-06-10T08:47:23;29.30;28.00
67050;DHT22;53955;52.442;13.284;2023-06-10T08:49:51;29.30;28.00
67050;DHT22;53955;52.442;13.284;2023-06-10T08:52:18;29.50;27.60
67050;DHT22;53955;52.442;13.284;2023-06-10T08:54:50;29.70;27.90
67050;DHT22;53955;52.442;13.284;2023-06-10T08:57:18;29.80;27.60
67050;DHT22;53955;52.442;13.284;2023-06-10T08:59:47;29.80;27.50
67050;DHT22;53955;52.442;13.284;2023-06-10T09:02:14;29.90;27.50
67050;DHT22;53955;52.442;13.284;2023-06-10T09:04:46;30.30;26.40
67050;DHT22;53955;52.442;13.284;2023-06-10T09:07:14;30.30;27.40
67050;DHT22;53955;52.442;13.284;2023-06-10T09:09:42;30.60;27.30
67050;DHT22;53955;52.442;13.284;2023-06-10T09:12:09;30.90;26.80
67050;DHT22;53955;52.442;13.284;2023-06-10T09:14:36;30.80;25.40
67050;DHT22;53955;52.442;13.284;2023-06-10T09:17:03;30.20;26.60
67050;DHT22;53955;52.442;13.284;2023-06-10T09:19:30;30.20;26.80
67050;DHT22;53955;52.442;13.284;2023-06-10T09:21:58;30.30;26.60
67050;DHT22;53955;52.442;13.284;2023-06-10T09:24:25;30.20;27.30
67050;DHT22;53955;52.442;13.284;2023-06-10T09:27:02;30.50;26.20
67050;DHT22;53955;52.442;13.284;2023-06-10T09:29:28;30.40;26.40
67050;DHT22;53955;52.442;13.284;2023-06-10T09:31:55;30.40;26.10
67050;DHT22;53955;52.442;13.284;2023-06-10T09:34:25;30.40;26.60
67050;DHT22;53955;52.442;13.284;2023-06-10T09:36:51;30.50;26.00
67050;DHT22;53955;52.442;13.284;2023-06-10T09:39:19;30.60;26.80
67050;DHT22;53955;52.442;13.284;2023-06-10T09:41:46;30.70;26.00
67050;DHT22;53955;52.442;13.284;2023-06-10T09:44:13;30.70;26.20
67050;DHT22;53955;52.442;13.284;2023-06-10T09:46:41;30.70;26.50
67050;DHT22;53955;52.442;13.284;2023-06-10T09:49:08;30.60;26.00
67050;DHT22;53955;52.442;13.284;2023-06-10T09:51:34;30.70;25.90
67050;DHT22;53955;52.442;13.284;2023-06-10T09:54:02;30.60;27.30
67050;DHT22;53955;52.442;13.284;2023-06-10T09:56:34;30.60;26.80
67050;DHT22;53955;52.442;13.284;2023-06-10T09:59:02;30.40;25.40
67050;DHT22;53955;52.442;13.284;2023-06-10T10:01:31;30.30;26.20
67050;DHT22;53955;52.442;13.284;2023-06-10T10:03:59;30.30;25.80
67050;DHT22;53955;52.442;13.284;2023-06-10T10:06:26;30.40;26.70
67050;DHT22;53955;52.442;13.284;2023-06-10T10:08:53;30.10;26.20
67050;DHT22;53955;52.442;13.284;2023-06-10T10:11:22;29.80;27.30
67050;DHT22;53955;52.442;13.284;2023-06-10T10:13:51;29.70;27.80
67050;DHT22;53955;52.442;13.284;2023-06-10T10:16:19;29.40;27.20
67050;DHT22;53955;52.442;13.284;2023-06-10T10:18:51;29.10;28.70
67050;DHT22;53955;52.442;13.284;2023-06-10T10:21:22;28.90;28.10
67050;DHT22;53955;52.442;13.284;2023-06-10T10:23:53;28.60;28.60
67050;DHT22;53955;52.442;13.284;2023-06-10T10:26:21;28.40;28.90
67050;DHT22;53955;52.442;13.284;2023-06-10T10:28:57;28.40;29.60
67050;DHT22;53955;52.442;13.284;2023-06-10T10:31:27;28.20;28.30
67050;DHT22;53955;52.442;13.284;2023-06-10T10:33:59;28.10;28.10
67050;DHT22;53955;52.442;13.284;2023-06-10T10:36:26;28.00;28.10
67050;DHT22;53955;52.442;13.284;2023-06-10T10:38:53;27.90;27.70
67050;DHT22;53955;52.442;13.284;2023-06-10T10:41:20;27.70;28.10
67050;DHT22;53955;52.442;13.284;2023-06-10T10:43:49;27.70;28.50
67050;DHT22;53955;52.442;13.284;2023-06-10T10:46:18;27.60;28.30
67050;DHT22;53955;52.442;13.284;2023-06-10T10:48:44;27.60;28.40
67050;DHT22;53955;52.442;13.284;2023-06-10T10:51:12;27.50;28.50
67050;DHT22;53955;52.442;13.284;2023-06-10T10:53:41;27.70;27.50
67050;DHT22;53955;52.442;13.284;2023-06-10T10:56:12;27.60;27.30
67050;DHT22;53955;52.442;13.284;2023-06-10T10:58:39;27.60;26.80
67050;DHT22;53955;52.442;13.284;2023-06-10T11:01:14;27.60;26.00
67050;DHT22;53955;52.442;13.284;2023-06-10T11:03:45;27.60;25.90
67050;DHT22;53955;52.442;13.284;2023-06-10T11:06:13;27.80;26.20
67050;DHT22;53955;52.442;13.284;2023-06-10T11:08:47;27.90;25.50
67050;DHT22;53955;52.442;13.284;2023-06-10T11:11:20;27.90;24.10
67050;DHT22;53955;52.442;13.284;2023-06-10T11:14:07;27.90;24.20
67050;DHT22;53955;52.442;13.284;2023-06-10T11:16:40;27.90;23.60
67050;DHT22;53955;52.442;13.284;2023-06-10T11:19:08;28.00;23.10
67050;DHT22;53955;52.442;13.284;2023-06-10T11:21:57;28.20;22.90
67050;DHT22;53955;52.442;13.284;2023-06-10T11:24:24;28.40;22.90
67050;DHT22;53955;52.442;13.284;2023-06-10T11:26:51;28.50;23.20
67050;DHT22;53955;52.442;13.284;2023-06-10T11:29:18;28.60;23.60
67050;DHT22;53955;52.442;13.284;2023-06-10T11:31:49;28.90;23.50
67050;DHT22;53955;52.442;13.284;2023-06-10T11:34:22;29.10;22.60
67050;DHT22;53955;52.442;13.284;2023-06-10T11:36:50;29.20;21.90
67050;DHT22;53955;52.442;13.284;2023-06-10T11:39:18;29.20;22.40
67050;DHT22;53955;52.442;13.284;2023-06-10T11:41:45;29.20;22.20
67050;DHT22;53955;52.442;13.284;2023-06-10T11:44:13;29.20;21.90
67050;DHT22;53955;52.442;13.284;2023-06-10T11:46:40;29.20;22.60
67050;DHT22;53955;52.442;13.284;2023-06-10T11:49:09;29.00;23.30
67050;DHT22;53955;52.442;13.284;2023-06-10T11:51:36;29.00;22.90
67050;DHT22;53955;52.442;13.284;2023-06-10T11:54:05;29.10;23.20
67050;DHT22;53955;52.442;13.284;2023-06-10T11:56:32;29.10;22.10
67050;DHT22;53955;52.442;13.284;2023-06-10T11:59:02;29.20;22.80
67050;DHT22;53955;52.442;13.284;2023-06-10T12:01:31;29.10;22.10
67050;DHT22;53955;52.442;13.284;2023-06-10T12:04:00;29.40;22.10
67050;DHT22;53955;52.442;13.284;2023-06-10T12:06:37;29.80;21.60
67050;DHT22;53955;52.442;13.284;2023-06-10T12:09:05;29.90;22.40
67050;DHT22;53955;52.442;13.284;2023-06-10T12:11:31;30.10;20.60
67050;DHT22;53955;52.442;13.284;2023-06-10T12:13:59;29.80;20.90
67050;DHT22;53955;52.442;13.284;2023-06-10T12:16:25;29.80;20.90
67050;DHT22;53955;52.442;13.284;2023-06-10T12:19:01;29.80;20.50
67050;DHT22;53955;52.442;13.284;2023-06-10T12:21:29;29.80;22.10
67050;DHT22;53955;52.442;13.284;2023-06-10T12:24:03;29.90;21.70
67050;DHT22;53955;52.442;13.284;2023-06-10T12:26:38;30.00;20.50
67050;DHT22;53955;52.442;13.284;2023-06-10T12:29:22;30.10;20.90
67050;DHT22;53955;52.442;13.284;2023-06-10T12:32:00;30.10;21.40
67050;DHT22;53955;52.442;13.284;2023-06-10T12:34:35;30.10;21.40
67050;DHT22;53955;52.442;13.284;2023-06-10T12:37:05;29.90;21.30
67050;DHT22;53955;52.442;13.284;2023-06-10T12:39:32;29.80;21.30
67050;DHT22;53955;52.442;13.284;2023-06-10T12:41:59;29.70;22.20
67050;DHT22;53955;52.442;13.284;2023-06-10T12:44:30;29.80;22.20
67050;DHT22;53955;52.442;13.284;2023-06-10T12:46:57;29.80;21.40
67050;DHT22;53955;52.442;13.284;2023-06-10T12:49:24;29.70;21.80
67050;DHT22;53955;52.442;13.284;2023-06-10T12:51:52;29.80;20.70
67050;DHT22;53955;52.442;13.284;2023-06-10T12:54:20;29.80;21.00
67050;DHT22;53955;52.442;13.284;2023-06-10T12:56:46;29.80;21.40
67050;DHT22;53955;52.442;13.284;2023-06-10T12:59:13;29.90;22.70
67050;DHT22;53955;52.442;13.284;2023-06-10T13:01:40;29.90;21.80
67050;DHT22;53955;52.442;13.284;2023-06-10T13:04:06;29.70;21.90
67050;DHT22;53955;52.442;13.284;2023-06-10T13:06:33;29.80;22.70
67050;DHT22;53955;52.442;13.284;2023-06-10T13:09:02;29.60;23.00
67050;DHT22;53955;52.442;13.284;2023-06-10T13:11:30;29.60;22.70
67050;DHT22;53955;52.442;13.284;2023-06-10T13:13:57;29.50;22.80
67050;DHT22;53955;52.442;13.284;2023-06-10T13:16:24;29.50;23.10
67050;DHT22;53955;52.442;13.284;2023-06-10T13:18:52;29.60;22.80
67050;DHT22;53955;52.442;13.284;2023-06-10T13:21:18;29.70;23.60
67050;DHT22;53955;52.442;13.284;2023-06-10T13:23:45;29.70;23.60
67050;DHT22;53955;52.442;13.284;2023-06-10T13:26:12;29.70;24.10
67050;DHT22;53955;52.442;13.284;2023-06-10T13:28:40;29.80;23.30
67050;DHT22;53955;52.442;13.284;2023-06-10T13:31:07;30.00;23.50
67050;DHT22;53955;52.442;13.284;2023-06-10T13:33:33;30.30;23.60
67050;DHT22;53955;52.442;13.284;2023-06-10T13:36:00;30.50;22.70
67050;DHT22;53955;52.442;13.284;2023-06-10T13:38:26;30.30;23.20
67050;DHT22;53955;52.442;13.284;2023-06-10T13:40:53;30.40;22.50
67050;DHT22;53955;52.442;13.284;2023-06-10T13:43:20;30.50;21.90
67050;DHT22;53955;52.442;13.284;2023-06-10T13:45:47;30.40;22.10
67050;DHT22;53955;52.442;13.284;2023-06-10T13:48:14;30.40;22.00
67050;DHT22;53955;52.442;13.284;2023-06-10T13:50:41;30.30;22.90
67050;DHT22;53955;52.442;13.284;2023-06-10T13:53:10;30.50;22.60
67050;DHT22;53955;52.442;13.284;2023-06-10T13:55:37;30.40;23.50
67050;DHT22;53955;52.442;13.284;2023-06-10T13:58:03;30.30;23.40
67050;DHT22;53955;52.442;13.284;2023-06-10T14:00:30;30.00;23.50
67050;DHT22;53955;52.442;13.284;2023-06-10T14:02:58;29.70;23.20
67050;DHT22;53955;52.442;13.284;2023-06-10T14:05:25;29.70;23.90
67050;DHT22;53955;52.442;13.284;2023-06-10T14:07:51;29.90;23.20
67050;DHT22;53955;52.442;13.284;2023-06-10T14:10:18;29.70;22.70
67050;DHT22;53955;52.442;13.284;2023-06-10T14:12:44;29.60;23.00
67050;DHT22;53955;52.442;13.284;2023-06-10T14:15:11;29.30;23.90
67050;DHT22;53955;52.442;13.284;2023-06-10T14:17:38;29.30;23.80
67050;DHT22;53955;52.442;13.284;2023-06-10T14:20:07;29.10;25.20
67050;DHT22;53955;52.442;13.284;2023-06-10T14:22:34;29.10;25.10
67050;DHT22;53955;52.442;13.284;2023-06-10T14:25:00;29.00;25.30
67050;DHT22;53955;52.442;13.284;2023-06-10T14:27:27;29.10;25.30
67050;DHT22;53955;52.442;13.284;2023-06-10T14:29:53;29.10;25.60
67050;DHT22;53955;52.442;13.284;2023-06-10T14:32:20;29.00;25.00
67050;DHT22;53955;52.442;13.284;2023-06-10T14:34:46;28.90;26.00
67050;DHT22;53955;52.442;13.284;2023-06-10T14:37:14;28.90;24.90
67050;DHT22;53955;52.442;13.284;2023-06-10T14:39:41;28.90;25.30
67050;DHT22;53955;52.442;13.284;2023-06-10T14:42:08;29.30;24.70
67050;DHT22;53955;52.442;13.284;2023-06-10T14:44:35;29.20;22.60
67050;DHT22;53955;52.442;13.284;2023-06-10T14:47:02;29.10;22.60
67050;DHT22;53955;52.442;13.284;2023-06-10T14:49:29;29.30;21.90
67050;DHT22;53955;52.442;13.284;2023-06-10T14:51:55;29.40;21.90
67050;DHT22;53955;52.442;13.284;2023-06-10T14:54:23;29.50;21.50
67050;DHT22;53955;52.442;13.284;2023-06-10T14:56:50;29.50;20.40
67050;DHT22;53955;52.442;13.284;2023-06-10T14:59:16;29.60;21.00
67050;DHT22;53955;52.442;13.284;2023-06-10T15:01:43;29.60;20.70
67050;DHT22;53955;52.442;13.284;2023-06-10T15:04:09;29.60;20.20
67050;DHT22;53955;52.442;13.284;2023-06-10T15:06:36;29.70;20.40
67050;DHT22;53955;52.442;13.284;2023-06-10T15:09:02;29.90;19.80
67050;DHT22;53955;52.442;13.284;2023-06-10T15:11:30;30.00;19.50
67050;DHT22;53955;52.442;13.284;2023-06-10T15:13:57;29.90;19.90
67050;DHT22;53955;52.442;13.284;2023-06-10T15:16:23;30.00;19.40
67050;DHT22;53955;52.442;13.284;2023-06-10T15:18:50;30.10;18.70